Time;durP1;ratioP1;P1;durP2;ratioP2;P2;SDS_P1;SDS_P2;PMS_P1;PMS_P2;Temp;Humidity;BMP_temperature;BMP_pressure;BME280_temperature;BME280_humidity;BME280_pressure;Samples;Min_cycle;Max_cycle;Signal;HPM_P1;HPM_P2
2023/08/07 00:02:04;;;;;;;33.60;7.90;;;24.60;77.80;;;;;;6275753;22;20004;-81
2023/08/07 00:04:30;;;;;;;33.83;6.60;;;24.60;77.70;;;;;;6247456;22;20020;-78
2023/08/07 00:06:55;;;;;;;34.00;7.25;;;24.60;77.80;;;;;;6246903;23;20449;-79
2023/08/07 00:09:21;;;;;;;29.42;6.63;;;24.60;77.90;;;;;;6246060;23;20004;-80
2023/08/07 00:11:48;;;;;;;38.42;7.25;;;24.50;78.20;;;;;;6244339;23;20026;-79
2023/08/07 00:14:14;;;;;;;29.40;6.75;;;24.50;78.10;;;;;;6217672;23;20012;-79
2023/08/07 00:16:41;;;;;;;26.70;6.55;;;24.50;78.10;;;;;;6244681;23;20072;-80
2023/08/07 00:19:07;;;;;;;32.00;7.30;;;24.40;78.20;;;;;;6244564;23;20064;-80
2023/08/07 00:21:35;;;;;;;31.42;6.68;;;24.40;78.20;;;;;;6244598;23;20023;-79
2023/08/07 00:24:01;;;;;;;23.48;6.60;;;24.40;78.30;;;;;;6244468;23;20027;-80
2023/08/07 00:26:27;;;;;;;28.73;6.72;;;24.40;78.40;;;;;;6219287;23;20325;-80
2023/08/07 00:28:52;;;;;;;30.73;6.78;;;24.40;78.50;;;;;;6246006;23;20079;-80
2023/08/07 00:31:18;;;;;;;37.53;6.40;;;24.40;78.80;;;;;;6246552;23;20015;-79
2023/08/07 00:33:44;;;;;;;31.30;6.35;;;24.40;78.80;;;;;;6219465;23;20464;-79
2023/08/07 00:36:10;;;;;;;29.05;6.72;;;24.40;78.70;;;;;;6246256;23;20499;-80
2023/08/07 00:38:35;;;;;;;27.63;7.00;;;24.40;78.70;;;;;;6246079;23;20004;-79
2023/08/07 00:41:01;;;;;;;29.83;6.15;;;24.40;78.80;;;;;;6246211;23;20004;-78
2023/08/07 00:43:27;;;;;;;31.13;7.15;;;24.50;78.60;;;;;;6246244;23;20007;-80
2023/08/07 00:45:53;;;;;;;30.77;7.22;;;24.50;78.40;;;;;;6246071;23;20012;-79
2023/08/07 00:48:19;;;;;;;29.08;7.60;;;24.50;78.20;;;;;;6246133;23;20011;-80
2023/08/07 00:50:46;;;;;;;37.92;6.82;;;24.50;78.50;;;;;;6245784;23;20334;-78
2023/08/07 00:53:11;;;;;;;30.67;6.90;;;24.40;78.40;;;;;;6246714;23;20378;-79
2023/08/07 00:55:37;;;;;;;32.47;7.13;;;24.40;78.70;;;;;;6245916;23;19996;-79
2023/08/07 00:58:03;;;;;;;30.73;6.53;;;24.40;78.70;;;;;;6246145;23;20004;-79
2023/08/07 01:00:30;;;;;;;26.92;5.93;;;24.40;79.00;;;;;;6218968;23;20233;-79
2023/08/07 01:02:56;;;;;;;30.73;6.57;;;24.40;78.90;;;;;;6219174;23;20114;-79
2023/08/07 01:05:26;;;;;;;32.20;7.32;;;24.40;78.80;;;;;;6218892;23;20026;-79
2023/08/07 01:07:54;;;;;;;27.63;6.93;;;24.40;79.60;;;;;;6245805;23;20007;-80
2023/08/07 01:10:32;;;;;;;29.95;6.03;;;24.40;78.80;;;;;;6246124;23;20004;-80
2023/08/07 01:13:12;;;;;;;28.25;7.25;;;24.40;78.70;;;;;;6245828;23;20000;-80
2023/08/07 01:15:38;;;;;;;38.78;7.32;;;24.40;79.60;;;;;;6245565;23;20000;-79
2023/08/07 01:18:08;;;;;;;31.15;7.05;;;24.30;78.90;;;;;;6245789;23;20000;-79
2023/08/07 01:20:34;;;;;;;30.73;6.45;;;24.30;79.00;;;;;;6219112;23;20070;-79
2023/08/07 01:23:00;;;;;;;30.50;5.47;;;24.30;79.20;;;;;;6249654;22;20348;-79
2023/08/07 01:25:26;;;;;;;28.42;6.57;;;24.30;79.90;;;;;;6276301;22;19996;-78
2023/08/07 01:28:21;;;;;;;33.65;6.47;;;24.30;79.00;;;;;;6276154;22;20094;-79
2023/08/07 01:30:54;;;;;;;25.42;5.88;;;24.40;79.60;;;;;;6266067;22;20003;-78
2023/08/07 01:33:24;;;;;;;26.13;6.53;;;24.40;78.70;;;;;;6284364;22;20042;-78
2023/08/07 01:35:55;;;;;;;21.88;5.20;;;24.40;78.60;;;;;;6282770;22;20003;-79
2023/08/07 01:38:24;;;;;;;26.45;6.03;;;24.30;78.50;;;;;;6276695;22;20003;-79
2023/08/07 01:40:51;;;;;;;27.70;6.00;;;24.30;78.60;;;;;;6249095;22;20425;-79
2023/08/07 01:43:19;;;;;;;27.20;6.35;;;24.30;78.60;;;;;;6276232;22;20011;-79
2023/08/07 01:45:45;;;;;;;23.48;6.05;;;24.30;78.80;;;;;;6276029;22;20003;-79
2023/08/07 01:48:11;;;;;;;28.23;5.95;;;24.30;78.70;;;;;;6276346;22;20019;-79
2023/08/07 01:50:38;;;;;;;27.63;6.22;;;24.20;78.80;;;;;;6276439;22;19996;-78
2023/08/07 01:53:05;;;;;;;23.33;6.38;;;24.20;78.90;;;;;;6276191;22;20026;-79
2023/08/07 01:55:31;;;;;;;29.40;6.55;;;24.30;78.70;;;;;;6276173;22;20458;-80
2023/08/07 01:57:56;;;;;;;26.60;5.78;;;24.30;78.60;;;;;;6276316;22;20079;-79
2023/08/07 02:00:22;;;;;;;20.30;5.03;;;24.30;78.50;;;;;;6249207;22;20004;-79
2023/08/07 02:02:48;;;;;;;25.33;5.95;;;24.30;78.50;;;;;;6276164;22;19999;-79
2023/08/07 02:05:14;;;;;;;22.17;5.65;;;24.30;78.40;;;;;;6276259;22;20034;-80
2023/08/07 02:07:41;;;;;;;22.80;5.55;;;24.30;78.10;;;;;;6248338;22;20471;-79
2023/08/07 02:10:07;;;;;;;25.67;6.38;;;24.30;78.20;;;;;;6275981;22;20004;-78
2023/08/07 02:12:33;;;;;;;22.88;5.47;;;24.30;78.30;;;;;;6275990;22;20452;-79
2023/08/07 02:15:01;;;;;;;23.92;6.22;;;24.30;78.10;;;;;;6275875;22;20000;-78
2023/08/07 02:17:30;;;;;;;27.38;6.10;;;24.30;78.10;;;;;;6276396;22;20034;-79
2023/08/07 02:19:56;;;;;;;22.15;5.70;;;24.30;78.00;;;;;;6276001;22;19995;-79
2023/08/07 02:22:22;;;;;;;22.88;5.20;;;24.20;77.90;;;;;;6276047;22;20027;-80
2023/08/07 02:24:48;;;;;;;24.92;5.78;;;24.30;78.10;;;;;;6248549;22;20397;-78
2023/08/07 02:27:13;;;;;;;22.13;5.43;;;24.30;78.10;;;;;;6275801;22;20007;-79
2023/08/07 02:29:39;;;;;;;25.75;5.80;;;24.20;77.90;;;;;;6275767;22;20011;-78
2023/08/07 02:32:05;;;;;;;23.73;6.28;;;24.20;77.90;;;;;;6275802;22;19996;-79
2023/08/07 02:34:31;;;;;;;26.95;5.90;;;24.20;77.90;;;;;;6275868;22;20004;-77
2023/08/07 02:36:58;;;;;;;21.45;5.78;;;24.20;77.90;;;;;;6248510;22;20081;-77
2023/08/07 02:39:24;;;;;;;27.90;6.15;;;24.20;77.80;;;;;;6275763;22;20493;-78
2023/08/07 02:41:50;;;;;;;25.05;5.93;;;24.20;77.70;;;;;;6275855;22;20004;-78
2023/08/07 02:44:17;;;;;;;22.10;5.43;;;24.10;77.70;;;;;;6275675;22;20150;-78
2023/08/07 02:46:43;;;;;;;18.27;4.82;;;24.10;77.50;;;;;;6275722;22;20122;-77
2023/08/07 02:49:09;;;;;;;25.67;4.95;;;24.10;77.50;;;;;;6275602;22;20040;-78
2023/08/07 02:51:35;;;;;;;23.05;6.07;;;24.10;77.70;;;;;;6275799;22;19996;-79
2023/08/07 02:54:00;;;;;;;26.75;5.93;;;24.10;77.50;;;;;;6275446;22;20038;-77
2023/08/07 02:56:26;;;;;;;20.80;5.32;;;24.10;77.70;;;;;;6275099;22;20003;-77
2023/08/07 02:58:51;;;;;;;21.65;5.93;;;24.00;77.80;;;;;;6278650;22;20000;-78
2023/08/07 03:01:19;;;;;;;20.55;5.78;;;23.90;77.80;;;;;;6290289;22;20015;-78
2023/08/07 03:03:45;;;;;;;26.77;5.97;;;23.90;78.20;;;;;;6275448;22;20465;-78
2023/08/07 03:06:11;;;;;;;24.05;5.47;;;23.80;78.30;;;;;;6248356;22;20057;-79
2023/08/07 03:08:36;;;;;;;22.60;5.68;;;23.80;78.50;;;;;;6275253;22;20007;-79
2023/08/07 03:11:02;;;;;;;25.30;5.75;;;23.70;78.60;;;;;;6275546;22;20437;-79
2023/08/07 03:13:28;;;;;;;23.17;5.50;;;23.70;78.90;;;;;;6275232;22;20004;-78
2023/08/07 03:16:04;;;;;;;23.75;5.93;;;23.60;79.00;;;;;;6275431;22;20034;-78
2023/08/07 03:18:30;;;;;;;21.90;5.38;;;23.60;79.00;;;;;;6275397;22;20031;-79
2023/08/07 03:20:57;;;;;;;24.25;6.60;;;23.60;79.00;;;;;;6275304;22;20433;-78
2023/08/07 03:23:23;;;;;;;24.20;5.60;;;23.70;79.30;;;;;;6275245;22;20003;-77
2023/08/07 03:25:49;;;;;;;21.00;5.70;;;23.70;79.30;;;;;;6275307;22;20122;-78
2023/08/07 03:28:15;;;;;;;21.02;5.38;;;23.60;79.20;;;;;;6275527;22;20338;-79
2023/08/07 03:30:41;;;;;;;25.10;6.05;;;23.60;79.60;;;;;;6274992;22;19996;-78
2023/08/07 03:33:07;;;;;;;21.80;5.80;;;23.60;80.00;;;;;;6275236;22;20004;-78
2023/08/07 03:35:33;;;;;;;28.08;6.40;;;23.60;79.40;;;;;;6275643;22;20022;-80
2023/08/07 03:37:58;;;;;;;22.10;5.55;;;23.70;79.70;;;;;;6248154;22;20007;-80
2023/08/07 03:40:24;;;;;;;18.98;5.35;;;23.60;79.60;;;;;;6275380;22;20007;-80
2023/08/07 03:42:49;;;;;;;26.90;5.63;;;23.60;79.50;;;;;;6275409;22;20438;-80
2023/08/07 03:45:15;;;;;;;25.30;6.35;;;23.70;79.60;;;;;;6275408;22;19995;-80
2023/08/07 03:47:41;;;;;;;19.98;5.32;;;23.60;79.60;;;;;;6275467;22;20121;-79
2023/08/07 03:50:07;;;;;;;23.02;6.85;;;23.60;79.60;;;;;;6276538;22;20310;-78
2023/08/07 03:52:33;;;;;;;22.83;5.55;;;23.60;79.80;;;;;;6276291;22;20429;-80
2023/08/07 03:54:58;;;;;;;22.35;6.70;;;23.60;79.70;;;;;;6275608;22;20014;-79
2023/08/07 03:57:24;;;;;;;23.98;5.45;;;23.70;79.60;;;;;;6275477;22;20011;-79
2023/08/07 03:59:50;;;;;;;21.17;6.03;;;23.70;79.60;;;;;;6275170;22;19996;-79
2023/08/07 04:02:16;;;;;;;20.15;6.68;;;23.60;79.50;;;;;;6277353;22;20026;-78
2023/08/07 04:04:42;;;;;;;23.83;5.65;;;23.60;79.60;;;;;;6277107;22;20087;-78
2023/08/07 04:07:07;;;;;;;26.35;6.45;;;23.50;79.60;;;;;;6277185;22;20001;-78
2023/08/07 04:09:33;;;;;;;21.20;5.93;;;23.60;79.80;;;;;;6277310;22;20012;-79
2023/08/07 04:11:59;;;;;;;23.60;5.93;;;23.50;79.80;;;;;;6277158;22;20004;-78
2023/08/07 04:14:25;;;;;;;16.60;5.78;;;23.50;79.90;;;;;;6250254;22;20441;-79
2023/08/07 04:16:51;;;;;;;22.83;6.00;;;23.50;79.60;;;;;;6277400;22;20002;-79
2023/08/07 04:19:17;;;;;;;26.00;6.75;;;23.50;79.90;;;;;;6277155;22;20032;-79
2023/08/07 04:21:42;;;;;;;29.00;7.15;;;23.50;79.90;;;;;;6249856;22;20379;-79
2023/08/07 04:24:10;;;;;;;22.30;6.30;;;23.60;79.90;;;;;;6277131;22;20489;-79
2023/08/07 04:26:36;;;;;;;25.45;6.38;;;23.60;79.60;;;;;;6282837;22;19995;-80
2023/08/07 04:29:03;;;;;;;26.20;7.78;;;23.60;79.40;;;;;;6289011;22;20007;-78
2023/08/07 04:31:31;;;;;;;19.67;7.00;;;23.70;79.60;;;;;;6277306;22;20065;-79
2023/08/07 04:33:57;;;;;;;26.08;7.38;;;23.70;79.40;;;;;;6276950;22;20377;-78
2023/08/07 04:36:23;;;;;;;24.52;7.75;;;23.70;79.50;;;;;;6249937;22;20008;-78
2023/08/07 04:38:50;;;;;;;24.67;7.30;;;23.80;80.10;;;;;;6276877;22;20004;-79
2023/08/07 04:41:15;;;;;;;23.55;7.13;;;23.80;79.10;;;;;;6277295;22;20003;-78
2023/08/07 04:43:42;;;;;;;24.45;7.05;;;23.80;79.10;;;;;;6276970;22;20368;-78
2023/08/07 04:46:09;;;;;;;27.63;8.15;;;23.70;79.00;;;;;;6249934;22;20003;-79
2023/08/07 04:48:35;;;;;;;25.88;7.30;;;23.70;79.00;;;;;;6276819;22;20007;-79
2023/08/07 04:51:01;;;;;;;25.67;6.97;;;23.70;78.90;;;;;;6276910;22;20126;-80
2023/08/07 04:53:27;;;;;;;28.48;8.02;;;23.60;78.70;;;;;;6276861;22;20079;-80
2023/08/07 04:55:53;;;;;;;28.75;8.30;;;23.60;78.70;;;;;;6277117;22;20028;-79
2023/08/07 04:58:18;;;;;;;27.25;7.63;;;23.60;79.30;;;;;;6276854;22;20018;-79
2023/08/07 05:00:44;;;;;;;25.27;9.30;;;23.60;78.70;;;;;;6276953;22;20453;-77
2023/08/07 05:03:10;;;;;;;23.52;7.07;;;23.60;78.60;;;;;;6277086;22;20046;-79
2023/08/07 05:05:35;;;;;;;26.80;6.90;;;23.50;78.60;;;;;;6276801;22;20003;-77
2023/08/07 05:08:01;;;;;;;20.73;6.07;;;23.60;78.60;;;;;;6276902;22;20012;-79
2023/08/07 05:10:27;;;;;;;29.67;7.60;;;23.50;78.60;;;;;;6276737;22;20074;-79
2023/08/07 05:12:55;;;;;;;23.75;6.22;;;23.50;78.80;;;;;;6249319;22;20035;-78
2023/08/07 05:15:25;;;;;;;23.42;6.63;;;23.50;78.40;;;;;;6277207;22;20310;-79
2023/08/07 05:17:51;;;;;;;19.15;5.38;;;23.60;78.20;;;;;;6276934;22;20401;-79
2023/08/07 05:20:17;;;;;;;20.90;6.07;;;23.60;78.20;;;;;;6249794;22;20011;-78
2023/08/07 05:22:43;;;;;;;27.10;6.53;;;23.60;78.00;;;;;;6249571;22;20057;-78
2023/08/07 05:25:11;;;;;;;22.08;6.45;;;23.60;78.00;;;;;;6276362;22;20377;-77
2023/08/07 05:27:37;;;;;;;22.85;6.63;;;23.60;78.00;;;;;;6276987;22;20023;-78
2023/08/07 05:30:03;;;;;;;31.27;6.93;;;23.60;77.90;;;;;;6277227;22;20341;-79
2023/08/07 05:32:28;;;;;;;24.38;7.05;;;23.60;78.10;;;;;;6250038;22;20019;-80
2023/08/07 05:34:54;;;;;;;27.40;6.68;;;23.60;78.30;;;;;;6249074;22;20426;-79
2023/08/07 05:37:20;;;;;;;22.25;6.45;;;23.70;78.10;;;;;;6276608;22;20018;-79
2023/08/07 05:39:45;;;;;;;22.88;6.35;;;23.60;78.00;;;;;;6276990;22;20078;-84
2023/08/07 05:42:12;;;;;;;22.33;6.78;;;23.60;78.10;;;;;;6279117;22;20325;-80
2023/08/07 05:44:38;;;;;;;27.00;6.32;;;23.60;78.10;;;;;;6250842;22;20350;-77
2023/08/07 05:47:04;;;;;;;27.30;6.88;;;23.60;78.30;;;;;;6249709;22;20004;-82
2023/08/07 05:49:29;;;;;;;27.27;7.05;;;23.80;78.30;;;;;;6249772;22;20162;-77
2023/08/07 05:51:55;;;;;;;24.92;6.82;;;23.80;77.90;;;;;;6277343;22;19999;-78
2023/08/07 05:54:21;;;;;;;22.75;6.78;;;23.80;77.80;;;;;;6286514;22;20063;-77
2023/08/07 05:56:47;;;;;;;20.33;6.30;;;23.90;77.70;;;;;;6278481;22;19995;-81
2023/08/07 05:59:13;;;;;;;23.52;5.82;;;24.00;77.40;;;;;;6278246;22;20000;-79
2023/08/07 06:01:40;;;;;;;27.80;7.57;;;24.10;77.10;;;;;;6277114;22;20041;-82
2023/08/07 18:39:41;;;;;;;13.07;2.97;;;27.20;59.30;;;;;;6271655;22;20030;-77
2023/08/07 18:42:06;;;;;;;12.40;2.97;;;27.20;59.50;;;;;;6248098;22;20338;-76
2023/08/07 18:44:32;;;;;;;12.88;2.70;;;27.10;58.80;;;;;;6274202;22;20023;-75
2023/08/07 18:46:58;;;;;;;14.18;2.63;;;27.10;58.80;;;;;;6274890;22;19995;-77
2023/08/07 18:49:24;;;;;;;12.02;3.00;;;27.10;58.70;;;;;;6274883;22;20046;-74
2023/08/07 18:51:49;;;;;;;9.60;2.50;;;27.00;58.80;;;;;;6275280;22;20000;-76
2023/08/07 18:54:15;;;;;;;11.32;2.85;;;27.00;58.70;;;;;;6275175;22;20000;-76
2023/08/07 18:56:41;;;;;;;12.10;3.03;;;27.00;58.80;;;;;;6275069;22;20388;-76
2023/08/07 18:59:10;;;;;;;12.57;2.95;;;27.00;58.70;;;;;;6274095;22;20004;-75
2023/08/07 19:01:35;;;;;;;10.40;3.15;;;27.00;58.90;;;;;;6274984;22;19999;-77
2023/08/07 19:04:01;;;;;;;10.85;2.90;;;26.90;59.00;;;;;;6275502;22;20004;-76
2023/08/07 19:06:29;;;;;;;9.55;2.83;;;26.90;59.10;;;;;;6275407;22;19996;-76
2023/08/07 19:08:54;;;;;;;8.15;2.72;;;26.90;59.30;;;;;;6275127;22;20012;-78
2023/08/07 19:11:20;;;;;;;11.23;2.65;;;26.90;59.30;;;;;;6246686;22;20378;-73
2023/08/07 19:13:46;;;;;;;11.80;2.72;;;26.80;59.30;;;;;;6277501;22;20410;-76
2023/08/07 19:16:12;;;;;;;10.50;2.80;;;26.80;59.60;;;;;;6276407;22;20045;-79
2023/08/07 19:18:37;;;;;;;10.60;2.92;;;26.80;59.80;;;;;;6255046;22;20090;-77
2023/08/07 19:21:03;;;;;;;12.75;3.58;;;26.80;59.80;;;;;;6278089;22;20079;-76
2023/08/07 19:23:31;;;;;;;13.35;3.50;;;26.80;60.00;;;;;;6275434;22;20326;-77
2023/08/07 19:25:58;;;;;;;13.80;3.13;;;26.80;60.20;;;;;;6248253;22;20071;-77
2023/08/07 19:28:24;;;;;;;10.00;2.78;;;26.80;60.30;;;;;;6275868;22;20364;-78
2023/08/07 19:30:50;;;;;;;9.52;3.00;;;26.80;60.40;;;;;;6276055;22;20046;-78
2023/08/07 19:33:15;;;;;;;10.30;3.03;;;26.80;60.40;;;;;;6278371;22;20000;-77
2023/08/07 19:35:41;;;;;;;11.52;3.40;;;26.80;60.70;;;;;;6278380;22;19999;-77
2023/08/07 19:38:07;;;;;;;14.75;3.60;;;26.80;60.90;;;;;;6278352;22;20003;-77
2023/08/07 19:40:33;;;;;;;16.58;3.58;;;26.80;61.30;;;;;;6278775;22;19999;-77
2023/08/07 19:42:58;;;;;;;11.15;3.10;;;26.70;61.20;;;;;;6279027;22;20071;-77
2023/08/07 19:45:25;;;;;;;14.82;3.63;;;26.70;61.40;;;;;;6278068;22;20053;-79
2023/08/07 19:47:51;;;;;;;8.70;2.72;;;26.70;61.50;;;;;;6251096;22;20380;-76
2023/08/07 19:50:17;;;;;;;15.55;3.78;;;26.70;61.40;;;;;;6251635;22;20012;-77
2023/08/07 19:52:42;;;;;;;12.07;3.25;;;26.70;61.50;;;;;;6278465;22;20382;-76
2023/08/07 19:55:08;;;;;;;13.02;3.10;;;26.70;61.50;;;;;;6278727;22;20027;-77
2023/08/07 19:57:34;;;;;;;14.65;3.78;;;26.60;61.40;;;;;;6278792;22;20061;-75
2023/08/07 20:00:00;;;;;;;13.77;3.33;;;26.60;61.70;;;;;;6277867;22;19999;-75
2023/08/07 20:02:27;;;;;;;13.30;3.10;;;26.60;61.80;;;;;;6278860;22;20000;-76
2023/08/07 20:04:53;;;;;;;11.52;3.10;;;26.50;61.70;;;;;;6251466;22;20008;-74
2023/08/07 20:07:18;;;;;;;10.23;3.22;;;26.50;61.80;;;;;;6278401;22;20011;-77
2023/08/07 20:09:44;;;;;;;15.88;3.10;;;26.40;61.80;;;;;;6278738;22;20012;-75
2023/08/07 20:12:10;;;;;;;11.45;2.95;;;26.40;61.80;;;;;;6278268;22;20034;-75
2023/08/07 20:14:36;;;;;;;11.85;3.05;;;26.30;61.80;;;;;;6278395;22;20438;-77
2023/08/07 20:17:05;;;;;;;12.93;3.63;;;26.30;61.90;;;;;;6278834;22;20077;-75
2023/08/07 20:19:31;;;;;;;18.50;3.97;;;26.30;62.20;;;;;;6278293;22;20004;-74
2023/08/07 20:21:58;;;;;;;12.70;3.20;;;26.30;62.10;;;;;;6251106;22;20400;-76
2023/08/07 20:24:24;;;;;;;16.67;3.45;;;26.30;62.10;;;;;;6278348;22;20166;-75
2023/08/07 20:26:50;;;;;;;9.63;3.35;;;26.30;62.20;;;;;;6251068;22;20031;-77
2023/08/07 20:29:16;;;;;;;14.02;3.13;;;26.30;62.20;;;;;;6277501;22;20012;-76
2023/08/07 20:31:41;;;;;;;10.20;3.03;;;26.20;61.90;;;;;;6278549;22;20134;-76
2023/08/07 20:34:07;;;;;;;10.55;3.40;;;26.20;61.90;;;;;;6278281;22;20358;-76
2023/08/07 20:36:33;;;;;;;12.90;3.20;;;26.20;62.00;;;;;;6278084;22;20006;-76
2023/08/07 20:38:59;;;;;;;12.30;3.20;;;26.20;61.80;;;;;;6250985;22;20030;-77
2023/08/07 20:41:25;;;;;;;13.05;3.13;;;26.20;61.70;;;;;;6275469;22;20019;-77
2023/08/07 20:43:51;;;;;;;12.35;3.70;;;26.10;61.90;;;;;;6248545;22;20087;-76
2023/08/07 20:46:17;;;;;;;13.75;3.25;;;26.10;61.90;;;;;;6277005;22;19996;-76
2023/08/07 20:48:49;;;;;;;13.10;3.03;;;26.10;62.00;;;;;;6276631;22;20045;-76
2023/08/07 20:51:18;;;;;;;13.82;3.60;;;26.10;62.30;;;;;;6276575;22;20422;-75
2023/08/07 20:53:45;;;;;;;10.95;3.03;;;26.00;62.30;;;;;;6276688;22;20003;-76
2023/08/07 20:56:11;;;;;;;10.45;2.80;;;26.00;62.60;;;;;;6249623;22;20426;-75
2023/08/07 20:58:37;;;;;;;13.98;3.15;;;26.00;62.60;;;;;;6276039;22;20031;-76
2023/08/07 21:01:03;;;;;;;17.35;3.88;;;25.90;62.70;;;;;;6276083;22;20026;-74
2023/08/07 21:03:29;;;;;;;11.85;2.80;;;25.90;62.80;;;;;;6276617;22;20034;-75
2023/08/07 21:05:55;;;;;;;14.02;3.22;;;25.90;62.90;;;;;;6276839;22;19999;-74
2023/08/07 21:08:20;;;;;;;14.45;3.42;;;25.80;62.80;;;;;;6276312;22;20011;-76
2023/08/07 21:10:46;;;;;;;16.73;3.25;;;25.70;62.80;;;;;;6276386;22;20079;-75
2023/08/07 21:13:12;;;;;;;10.93;2.90;;;25.70;62.70;;;;;;6276071;22;20049;-76
2023/08/07 21:15:38;;;;;;;9.00;2.72;;;25.60;62.90;;;;;;6249504;22;20429;-74
2023/08/07 21:18:04;;;;;;;13.25;2.85;;;25.60;63.20;;;;;;6276589;22;20117;-76
2023/08/07 21:20:30;;;;;;;10.32;3.00;;;25.60;63.10;;;;;;6277101;22;20000;-75
2023/08/07 21:22:56;;;;;;;12.02;3.25;;;25.50;63.00;;;;;;6285676;22;20006;-77
2023/08/07 21:25:22;;;;;;;12.45;3.05;;;25.50;62.80;;;;;;6289559;22;19996;-76
2023/08/07 21:27:48;;;;;;;16.77;3.33;;;25.50;63.10;;;;;;6282292;22;20082;-76
2023/08/07 21:30:13;;;;;;;13.20;2.95;;;25.50;63.10;;;;;;6277048;22;20011;-78
2023/08/07 21:32:44;;;;;;;11.68;2.90;;;25.50;62.90;;;;;;6249458;22;20336;-76
2023/08/07 21:35:13;;;;;;;10.27;2.55;;;25.50;62.90;;;;;;6276969;22;20004;-76
2023/08/07 21:37:40;;;;;;;11.18;3.58;;;25.50;63.10;;;;;;6276255;22;20438;-75
2023/08/07 21:40:08;;;;;;;13.52;3.28;;;25.40;62.60;;;;;;6248225;22;20445;-76
2023/08/07 21:42:34;;;;;;;17.05;3.38;;;25.40;62.90;;;;;;6248837;22;20063;-79
2023/08/07 21:45:00;;;;;;;9.63;2.72;;;25.40;62.80;;;;;;6276339;22;20422;-77
2023/08/07 21:47:26;;;;;;;13.57;2.92;;;25.40;62.80;;;;;;6276394;22;19996;-75
2023/08/07 21:49:51;;;;;;;12.95;3.05;;;25.30;62.70;;;;;;6276110;22;20449;-75
2023/08/07 21:52:17;;;;;;;10.90;2.80;;;25.30;62.60;;;;;;6276370;22;19995;-75
2023/08/07 21:54:43;;;;;;;9.88;2.92;;;25.30;62.60;;;;;;6275870;22;20004;-76
2023/08/07 21:57:09;;;;;;;11.32;2.83;;;25.20;62.30;;;;;;6276321;22;20072;-77
2023/08/07 21:59:34;;;;;;;13.40;2.88;;;25.30;62.20;;;;;;6276359;22;20430;-78
2023/08/07 22:02:00;;;;;;;16.88;3.72;;;25.30;61.90;;;;;;6276657;22;20053;-79
2023/08/07 22:04:26;;;;;;;10.38;2.88;;;25.20;61.80;;;;;;6276138;22;20024;-78
2023/08/07 22:06:51;;;;;;;16.45;3.70;;;25.20;61.40;;;;;;6275823;22;20007;-69
2023/08/07 22:09:17;;;;;;;11.52;3.83;;;25.20;61.20;;;;;;6275739;22;20440;-69
2023/08/07 22:11:43;;;;;;;10.32;3.45;;;25.20;61.10;;;;;;6275874;22;20436;-70
2023/08/07 22:14:09;;;;;;;10.40;2.53;;;25.20;60.50;;;;;;6276065;22;20027;-70
2023/08/07 22:16:34;;;;;;;8.50;2.80;;;25.20;60.30;;;;;;6248781;22;20007;-70
2023/08/07 22:19:00;;;;;;;11.70;2.88;;;25.20;60.00;;;;;;6275753;22;20011;-69
2023/08/07 22:21:26;;;;;;;11.88;3.30;;;25.10;60.00;;;;;;6275787;22;20073;-69
2023/08/07 22:23:52;;;;;;;11.82;3.10;;;25.10;59.90;;;;;;6275620;22;20000;-69
2023/08/07 22:26:18;;;;;;;9.32;2.95;;;25.10;60.40;;;;;;6275733;22;20435;-69
2023/08/07 22:28:44;;;;;;;12.68;2.92;;;25.10;60.40;;;;;;6275432;22;20054;-70
2023/08/07 22:31:09;;;;;;;12.48;3.10;;;25.10;60.30;;;;;;6248459;22;20003;-71
2023/08/07 22:33:36;;;;;;;8.20;2.65;;;25.00;59.70;;;;;;6275918;22;20053;-69
2023/08/07 22:36:03;;;;;;;8.60;2.80;;;25.00;59.20;;;;;;6275710;22;20076;-68
2023/08/07 22:38:30;;;;;;;11.73;3.10;;;24.90;59.00;;;;;;6275789;22;20060;-70
2023/08/07 22:40:56;;;;;;;7.13;2.55;;;24.90;58.70;;;;;;6275525;22;20271;-70
2023/08/07 22:43:21;;;;;;;8.15;2.30;;;24.80;58.30;;;;;;6248359;22;20102;-70
2023/08/07 22:45:50;;;;;;;8.75;2.97;;;24.80;57.90;;;;;;6248384;22;20410;-69
2023/08/07 22:48:16;;;;;;;9.02;2.63;;;24.80;57.90;;;;;;6275386;22;20054;-69
2023/08/07 22:50:42;;;;;;;7.78;2.55;;;24.70;57.50;;;;;;6275435;22;20000;-69
2023/08/07 22:53:08;;;;;;;14.57;2.88;;;24.70;57.10;;;;;;6275455;22;20054;-69
2023/08/07 22:55:34;;;;;;;6.43;2.25;;;24.70;56.70;;;;;;6275109;22;20338;-68
2023/08/07 22:58:00;;;;;;;12.48;2.75;;;24.70;56.40;;;;;;6275701;22;20106;-69
2023/08/07 23:00:25;;;;;;;8.40;2.35;;;24.70;56.40;;;;;;6275420;22;20011;-69
2023/08/07 23:02:53;;;;;;;9.25;2.83;;;24.70;56.40;;;;;;6275040;22;20004;-68
2023/08/07 23:05:19;;;;;;;11.77;2.88;;;24.70;56.20;;;;;;6274526;22;19999;-68
2023/08/07 23:07:45;;;;;;;6.85;2.63;;;24.70;56.20;;;;;;6275051;22;20409;-69
2023/08/07 23:10:11;;;;;;;11.02;2.85;;;24.70;55.90;;;;;;6275029;22;20031;-70
2023/08/07 23:12:37;;;;;;;9.35;2.80;;;24.70;56.20;;;;;;6275048;22;20422;-69
2023/08/07 23:15:03;;;;;;;9.80;2.75;;;24.70;56.10;;;;;;6275166;22;20010;-70
2023/08/07 23:17:29;;;;;;;11.90;2.97;;;24.80;56.50;;;;;;6274910;22;20000;-69
2023/08/07 23:19:55;;;;;;;7.47;2.50;;;24.80;56.40;;;;;;6275610;22;20011;-69
2023/08/07 23:22:21;;;;;;;9.95;2.78;;;24.80;56.30;;;;;;6275317;22;20086;-69
2023/08/07 23:24:46;;;;;;;10.95;2.83;;;24.80;56.40;;;;;;6275192;22;19999;-68
2023/08/07 23:27:13;;;;;;;6.05;2.30;;;24.80;56.40;;;;;;6275547;22;20000;-68
2023/08/07 23:29:41;;;;;;;6.55;2.40;;;24.80;56.30;;;;;;6275352;22;20066;-69
2023/08/07 23:32:07;;;;;;;7.88;2.55;;;24.80;56.30;;;;;;6275013;22;19995;-69
2023/08/07 23:34:32;;;;;;;6.20;2.20;;;24.80;56.30;;;;;;6275008;22;20121;-68
2023/08/07 23:36:58;;;;;;;6.40;2.30;;;24.70;56.10;;;;;;6275351;22;20023;-69
2023/08/07 23:39:24;;;;;;;6.78;2.65;;;24.70;56.40;;;;;;6274836;22;20062;-70
2023/08/07 23:41:51;;;;;;;8.43;2.70;;;24.60;56.60;;;;;;6275280;22;20000;-69
2023/08/07 23:44:17;;;;;;;7.63;2.90;;;24.60;56.60;;;;;;6247824;22;20012;-69
2023/08/07 23:46:42;;;;;;;9.10;2.60;;;24.50;56.90;;;;;;6275373;22;20098;-70
2023/08/07 23:49:08;;;;;;;11.98;3.10;;;24.50;57.90;;;;;;6275483;22;20065;-67
2023/08/07 23:51:34;;;;;;;8.35;3.03;;;24.40;58.80;;;;;;6275811;22;20000;-68
2023/08/07 23:53:59;;;;;;;10.75;3.05;;;24.40;59.70;;;;;;6275457;22;20078;-69
2023/08/07 23:56:25;;;;;;;13.70;3.20;;;24.30;60.70;;;;;;6275088;22;20000;-70
2023/08/07 23:58:51;;;;;;;11.85;3.30;;;24.30;61.20;;;;;;6275080;22;20333;-70
